Time;durP1;ratioP1;P1;durP2;ratioP2;P2;SDS_P1;SDS_P2;PMS_P1;PMS_P2;Temp;Humidity;BMP_temperature;BMP_pressure;BME280_temperature;BME280_humidity;BME280_pressure;Samples;Min_cycle;Max_cycle;Signal;HPM_P1;HPM_P2
2021/04/09 00:00:50;;;;;;;16.60;14.90;;;30.00;92.70;;;;;;5093776;28;20219;-53
2021/04/09 00:03:20;;;;;;;17.50;15.75;;;30.00;92.70;;;;;;5094544;28;20220;-51
2021/04/09 00:05:50;;;;;;;18.10;16.40;;;30.00;92.70;;;;;;5094565;28;20234;-55
2021/04/09 00:08:20;;;;;;;18.00;16.25;;;30.00;92.70;;;;;;5093776;28;20719;-51
2021/04/09 00:10:50;;;;;;;17.70;16.13;;;30.10;92.80;;;;;;5095743;28;20273;-53
2021/04/09 00:13:21;;;;;;;17.67;15.77;;;30.10;92.80;;;;;;5096386;28;20244;-52
2021/04/09 00:15:52;;;;;;;20.95;18.15;;;30.10;92.80;;;;;;5097008;28;20287;-56
2021/04/09 00:18:23;;;;;;;18.77;17.02;;;30.20;92.80;;;;;;5097496;28;20197;-52
2021/04/09 00:20:53;;;;;;;17.50;15.88;;;30.20;92.80;;;;;;5097267;28;20209;-54
2021/04/09 00:23:23;;;;;;;18.95;16.75;;;30.20;92.70;;;;;;5096793;28;20662;-55
2021/04/09 00:25:54;;;;;;;17.05;15.52;;;30.30;92.80;;;;;;5097082;28;20228;-55
2021/04/09 00:28:24;;;;;;;18.17;16.55;;;30.40;92.90;;;;;;5098996;28;20646;-56
2021/04/09 00:30:55;;;;;;;18.55;16.65;;;30.40;92.90;;;;;;5097426;28;20763;-54
2021/04/09 00:33:28;;;;;;;17.85;16.00;;;30.40;92.90;;;;;;5097664;28;20209;-49
2021/04/09 00:35:58;;;;;;;18.08;16.25;;;30.50;92.90;;;;;;5097698;28;20203;-54
2021/04/09 00:38:28;;;;;;;16.95;15.38;;;30.60;92.80;;;;;;5099037;28;20200;-51
2021/04/09 00:40:59;;;;;;;16.25;14.75;;;30.60;92.80;;;;;;5098383;28;20244;-59
2021/04/09 00:43:29;;;;;;;15.32;13.90;;;30.60;92.70;;;;;;5096794;28;20193;-49
2021/04/09 00:46:00;;;;;;;15.80;14.32;;;30.70;92.80;;;;;;5097358;28;20213;-54
2021/04/09 00:48:31;;;;;;;15.98;14.38;;;30.80;92.80;;;;;;5098055;28;20203;-54
2021/04/09 00:51:01;;;;;;;17.25;15.45;;;30.80;92.80;;;;;;5097781;28;20612;-54
2021/04/09 00:53:31;;;;;;;17.13;15.52;;;30.90;92.80;;;;;;5097247;28;20201;-52
2021/04/09 00:56:02;;;;;;;16.08;14.50;;;30.90;92.80;;;;;;5095734;28;20201;-51
2021/04/09 00:58:32;;;;;;;16.55;14.85;;;31.00;92.80;;;;;;5033458;28;20206;-51
2021/04/09 01:01:04;;;;;;;14.38;12.82;;;31.00;92.80;;;;;;5033753;28;20215;-51
2021/04/09 01:03:34;;;;;;;13.55;12.23;;;31.10;92.80;;;;;;5033626;28;20596;-55
2021/04/09 01:06:05;;;;;;;15.80;13.07;;;31.20;92.80;;;;;;5033022;28;20203;-53
2021/04/09 01:08:37;;;;;;;15.02;13.48;;;31.20;92.80;;;;;;5030247;28;20211;-53
2021/04/09 01:11:07;;;;;;;13.20;11.95;;;31.30;92.80;;;;;;5027016;28;20199;-51
2021/04/09 01:13:37;;;;;;;15.05;13.55;;;31.30;92.70;;;;;;5033107;28;20234;-52
2021/04/09 01:16:13;;;;;;;13.55;12.02;;;31.40;92.80;;;;;;5031451;28;20217;-54
2021/04/09 01:18:47;;;;;;;11.63;10.52;;;31.50;92.80;;;;;;5031832;28;20567;-53
2021/04/09 01:21:25;;;;;;;10.45;9.45;;;31.60;92.80;;;;;;5031961;28;20213;-51
2021/04/09 01:24:41;;;;;;;9.65;8.73;;;31.60;92.60;;;;;;5032605;28;20207;-52
2021/04/09 01:27:46;;;;;;;9.20;8.32;;;31.70;92.50;;;;;;4992602;28;20318;-52
2021/04/09 01:30:41;;;;;;;9.23;8.40;;;31.80;92.20;;;;;;4981401;28;20218;-54
2021/04/09 01:33:12;;;;;;;9.30;8.50;;;31.90;92.00;;;;;;4954732;29;20660;-56
2021/04/09 01:35:43;;;;;;;10.18;8.48;;;31.90;92.00;;;;;;4948535;29;20213;-52
2021/04/09 01:38:13;;;;;;;11.48;10.38;;;32.00;92.00;;;;;;4955317;29;20216;-53
2021/04/09 01:40:44;;;;;;;10.23;9.07;;;32.10;91.60;;;;;;4953677;29;20213;-52
2021/04/09 01:43:18;;;;;;;9.88;8.88;;;32.10;91.50;;;;;;4935357;29;20214;-54
2021/04/09 01:45:50;;;;;;;9.63;8.73;;;32.10;91.50;;;;;;4935298;29;20210;-55
2021/04/09 01:48:22;;;;;;;9.45;8.57;;;32.20;91.50;;;;;;4935466;29;20280;-51
2021/04/09 01:50:52;;;;;;;8.55;7.82;;;32.30;91.20;;;;;;4947518;28;20221;-55
2021/04/09 01:53:23;;;;;;;8.52;7.32;;;32.30;91.30;;;;;;4980308;28;20284;-53
2021/04/09 01:55:53;;;;;;;8.70;7.80;;;32.40;90.90;;;;;;5027994;28;20699;-51
2021/04/09 01:58:25;;;;;;;8.90;8.10;;;32.40;90.80;;;;;;5061918;28;20201;-53
2021/04/09 02:00:56;;;;;;;8.13;7.40;;;32.40;90.70;;;;;;5072795;28;20319;-51
2021/04/09 02:03:27;;;;;;;8.10;7.40;;;32.50;90.60;;;;;;5072477;28;20225;-50
2021/04/09 02:05:57;;;;;;;9.82;8.80;;;32.60;90.40;;;;;;5069780;28;20231;-51
2021/04/09 02:08:28;;;;;;;10.80;9.60;;;32.60;89.70;;;;;;5072394;28;20279;-48
2021/04/09 02:10:58;;;;;;;8.50;7.72;;;32.70;89.60;;;;;;5072075;28;20209;-48
2021/04/09 02:13:28;;;;;;;9.10;7.93;;;32.80;89.90;;;;;;5071805;28;20237;-50
2021/04/09 02:15:59;;;;;;;8.93;8.02;;;32.80;89.60;;;;;;5031910;28;20219;-49
2021/04/09 02:18:30;;;;;;;9.00;8.02;;;32.90;89.70;;;;;;5031571;28;20663;-51
2021/04/09 02:21:01;;;;;;;9.20;8.30;;;32.90;89.30;;;;;;5031634;28;20206;-49
2021/04/09 02:23:31;;;;;;;8.52;7.65;;;33.00;89.20;;;;;;5031527;28;20221;-54
2021/04/09 02:26:02;;;;;;;8.70;7.25;;;33.00;89.00;;;;;;5031740;28;20200;-55
2021/04/09 02:28:32;;;;;;;9.00;7.90;;;33.10;88.80;;;;;;5031478;28;20257;-53
2021/04/09 02:31:05;;;;;;;8.65;7.93;;;33.20;88.90;;;;;;5024448;28;20682;-54
2021/04/09 02:33:37;;;;;;;8.95;7.93;;;33.20;88.30;;;;;;4992461;28;20239;-55
2021/04/09 02:36:11;;;;;;;9.00;8.07;;;33.30;88.10;;;;;;4992261;28;20280;-55
2021/04/09 02:38:43;;;;;;;7.97;7.05;;;33.40;87.70;;;;;;4988847;28;20227;-56
2021/04/09 02:41:13;;;;;;;9.20;8.38;;;33.50;87.40;;;;;;5039307;28;21081;-53
2021/04/09 02:43:43;;;;;;;8.25;7.45;;;33.50;87.00;;;;;;5050729;28;20217;-53
2021/04/09 02:46:15;;;;;;;9.00;7.65;;;33.60;87.10;;;;;;5050775;28;21348;-55
2021/04/09 02:48:52;;;;;;;8.95;8.15;;;33.70;87.00;;;;;;5050566;28;20230;-53
2021/04/09 02:51:22;;;;;;;8.57;7.85;;;33.80;87.60;;;;;;5051722;28;20209;-51
2021/04/09 02:53:52;;;;;;;9.30;8.50;;;33.80;86.80;;;;;;5052298;28;20222;-54
2021/04/09 02:56:23;;;;;;;8.40;7.65;;;33.90;86.30;;;;;;5052136;28;20202;-52
2021/04/09 02:58:53;;;;;;;9.13;8.35;;;34.00;85.70;;;;;;5067315;28;20205;-53
2021/04/09 03:01:24;;;;;;;8.32;7.63;;;34.10;85.70;;;;;;5074806;28;20245;-56
2021/04/09 03:03:55;;;;;;;9.18;8.32;;;34.10;85.40;;;;;;5074848;28;20855;-52
2021/04/09 03:06:25;;;;;;;9.52;8.57;;;34.20;83.80;;;;;;5075102;28;20204;-54
2021/04/09 03:08:56;;;;;;;9.00;7.82;;;34.30;83.30;;;;;;5074465;28;20201;-52
2021/04/09 03:11:26;;;;;;;9.45;7.95;;;34.30;83.40;;;;;;5031368;28;20221;-54
2021/04/09 03:13:56;;;;;;;8.88;8.07;;;34.30;83.10;;;;;;5031831;28;20284;-53
2021/04/09 03:16:27;;;;;;;8.38;7.68;;;34.40;82.80;;;;;;5031141;28;20194;-54
2021/04/09 03:18:59;;;;;;;9.98;9.07;;;34.50;83.10;;;;;;5031012;28;20234;-52
2021/04/09 03:21:28;;;;;;;9.05;8.20;;;34.60;81.20;;;;;;5031649;28;20199;-55
2021/04/09 03:23:59;;;;;;;9.50;8.63;;;34.60;81.40;;;;;;5032388;28;20249;-51
2021/04/09 03:26:29;;;;;;;9.48;8.52;;;34.60;80.70;;;;;;5031409;28;20198;-55
2021/04/09 03:28:59;;;;;;;9.73;8.90;;;34.60;80.10;;;;;;5030751;28;20275;-53
2021/04/09 03:31:29;;;;;;;9.27;8.48;;;34.70;78.70;;;;;;5030638;28;20229;-51
2021/04/09 03:34:01;;;;;;;8.68;7.97;;;34.60;78.00;;;;;;5031752;28;20736;-54
2021/04/09 03:36:31;;;;;;;10.02;9.02;;;34.60;76.70;;;;;;5061375;28;20272;-51
2021/04/09 03:39:01;;;;;;;8.73;7.93;;;34.60;75.40;;;;;;5074478;28;20205;-56
2021/04/09 03:41:31;;;;;;;7.95;7.20;;;34.60;76.00;;;;;;5073924;28;20679;-55
2021/04/09 03:44:01;;;;;;;9.02;8.13;;;34.70;77.00;;;;;;5030237;28;20214;-56
2021/04/09 03:46:32;;;;;;;8.40;7.60;;;34.70;76.40;;;;;;5033736;28;20210;-56
2021/04/09 03:49:04;;;;;;;8.93;8.13;;;34.70;76.70;;;;;;5034748;28;20604;-54
2021/04/09 03:51:34;;;;;;;10.35;9.35;;;34.80;76.40;;;;;;5034960;28;20210;-55
2021/04/09 03:54:05;;;;;;;8.15;7.35;;;34.80;75.60;;;;;;4975751;28;20661;-54
2021/04/09 03:56:35;;;;;;;8.88;8.07;;;34.90;75.80;;;;;;4975418;28;20247;-56
2021/04/09 03:59:05;;;;;;;9.43;8.55;;;34.90;76.30;;;;;;4976198;28;20208;-54
2021/04/09 04:01:35;;;;;;;9.35;8.45;;;34.90;76.80;;;;;;4976019;28;20272;-54
2021/04/09 04:04:07;;;;;;;8.85;8.05;;;34.90;77.80;;;;;;4975811;28;20308;-53
2021/04/09 04:06:37;;;;;;;10.00;9.10;;;35.00;77.30;;;;;;4976659;28;20208;-55
2021/04/09 04:09:08;;;;;;;10.50;9.40;;;35.00;77.00;;;;;;5018766;28;20245;-54
2021/04/09 04:11:38;;;;;;;8.60;7.85;;;35.00;76.90;;;;;;5035115;28;20297;-52
2021/04/09 04:14:08;;;;;;;9.98;9.18;;;35.10;77.50;;;;;;5015628;28;20239;-54
2021/04/09 04:16:38;;;;;;;9.50;8.60;;;35.10;76.30;;;;;;5015589;28;20727;-54
2021/04/09 04:19:10;;;;;;;10.05;9.13;;;35.10;76.20;;;;;;5012887;28;20258;-55
2021/04/09 04:21:40;;;;;;;8.73;8.02;;;35.10;75.50;;;;;;5010779;28;20262;-50
2021/04/09 04:24:11;;;;;;;9.80;8.88;;;35.10;75.80;;;;;;5020004;28;20253;-53
2021/04/09 04:26:41;;;;;;;10.05;9.00;;;35.10;75.90;;;;;;5057008;28;20203;-52
2021/04/09 04:29:11;;;;;;;9.65;8.80;;;35.10;75.70;;;;;;5057045;28;20202;-54
2021/04/09 04:31:42;;;;;;;9.57;8.68;;;35.10;76.00;;;;;;5058031;28;20597;-52
2021/04/09 04:34:13;;;;;;;10.63;9.63;;;35.10;75.60;;;;;;5057789;28;20285;-52
2021/04/09 04:36:46;;;;;;;9.68;8.77;;;35.10;75.40;;;;;;5057964;28;20567;-51
2021/04/09 04:39:16;;;;;;;10.00;9.00;;;35.00;75.70;;;;;;5057006;28;20206;-52
2021/04/09 04:41:47;;;;;;;10.27;9.27;;;34.90;75.50;;;;;;5058026;28;20209;-52
2021/04/09 04:44:18;;;;;;;11.95;10.90;;;34.80;75.50;;;;;;5057570;28;20206;-53
2021/04/09 04:46:48;;;;;;;11.40;10.30;;;34.70;72.50;;;;;;5058421;28;20206;-54
2021/04/09 04:49:24;;;;;;;9.43;8.73;;;34.60;71.90;;;;;;5055974;28;20220;-51
2021/04/09 04:51:55;;;;;;;10.43;9.63;;;34.50;71.70;;;;;;5057050;28;20281;-50
2021/04/09 04:54:25;;;;;;;10.60;9.70;;;34.40;71.30;;;;;;5050783;28;20202;-52
2021/04/09 04:56:55;;;;;;;9.68;8.57;;;34.30;71.30;;;;;;5056081;28;20202;-51
2021/04/09 04:59:25;;;;;;;8.85;8.02;;;34.20;70.70;;;;;;5057017;28;20214;-55
2021/04/09 05:01:56;;;;;;;8.10;7.35;;;34.10;71.90;;;;;;5056802;28;20198;-55
2021/04/09 05:04:28;;;;;;;11.48;8.68;;;34.00;72.70;;;;;;5057186;28;20662;-55
2021/04/09 05:06:58;;;;;;;10.85;7.13;;;33.90;74.20;;;;;;5057114;28;20202;-56
2021/04/09 05:09:28;;;;;;;12.38;7.30;;;33.70;73.90;;;;;;5056593;28;20206;-54
2021/04/09 05:11:58;;;;;;;8.00;6.05;;;33.60;74.00;;;;;;5062929;28;20237;-55
2021/04/09 05:14:29;;;;;;;6.72;5.72;;;33.50;74.30;;;;;;5093428;28;20205;-54
2021/04/09 05:16:59;;;;;;;7.80;6.38;;;33.30;74.60;;;;;;5089832;28;20228;-51
2021/04/09 05:19:31;;;;;;;7.70;6.80;;;33.10;75.00;;;;;;5096740;28;20192;-52
2021/04/09 05:22:01;;;;;;;7.35;6.40;;;33.00;75.50;;;;;;5095416;28;20204;-52
2021/04/09 05:24:31;;;;;;;7.43;6.82;;;32.90;75.80;;;;;;5095849;28;20315;-54
2021/04/09 05:27:02;;;;;;;8.20;7.20;;;32.70;76.20;;;;;;5095813;28;20228;-52
2021/04/09 05:29:33;;;;;;;9.05;8.20;;;32.60;76.40;;;;;;5096799;28;20197;-51
2021/04/09 05:32:06;;;;;;;8.38;7.68;;;32.50;76.70;;;;;;5096367;28;20548;-54
2021/04/09 05:34:38;;;;;;;7.03;6.43;;;32.40;76.00;;;;;;5095835;28;20197;-50
2021/04/09 05:37:08;;;;;;;8.27;7.57;;;32.30;75.80;;;;;;5095995;28;20220;-50
2021/04/09 05:39:38;;;;;;;7.95;7.25;;;32.20;75.80;;;;;;5096573;28;20211;-52
2021/04/09 05:42:09;;;;;;;6.78;6.18;;;32.00;75.50;;;;;;5096839;28;20671;-51
2021/04/09 05:44:40;;;;;;;7.20;6.60;;;31.90;75.60;;;;;;5095701;28;20197;-51
2021/04/09 05:47:10;;;;;;;8.68;7.78;;;31.70;76.20;;;;;;5095306;28;21333;-52
2021/04/09 05:49:42;;;;;;;7.50;6.82;;;31.60;76.70;;;;;;5095908;28;20280;-50
2021/04/09 05:52:12;;;;;;;6.75;6.03;;;31.40;77.30;;;;;;5094762;28;20218;-54
2021/04/09 05:54:43;;;;;;;5.75;5.10;;;31.20;77.90;;;;;;5093875;28;20239;-48
2021/04/09 05:57:13;;;;;;;7.55;6.82;;;31.10;78.40;;;;;;5093203;28;20580;-51
2021/04/09 05:59:44;;;;;;;7.43;6.82;;;31.00;79.10;;;;;;5094455;28;20239;-52
2021/04/09 06:02:14;;;;;;;7.78;6.47;;;30.90;79.70;;;;;;5093774;28;20201;-54
2021/04/09 06:04:46;;;;;;;7.15;6.45;;;30.90;80.10;;;;;;5093266;28;20196;-53
2021/04/09 06:07:16;;;;;;;7.40;6.70;;;30.80;80.90;;;;;;5092414;28;20213;-53
2021/04/09 06:09:47;;;;;;;8.85;7.93;;;30.70;81.10;;;;;;5093375;28;20636;-55
2021/04/09 06:12:18;;;;;;;7.18;6.53;;;30.70;81.60;;;;;;5093501;28;20228;-56
2021/04/09 06:14:48;;;;;;;7.18;6.47;;;30.70;81.80;;;;;;5093725;28;20506;-54
2021/04/09 06:17:19;;;;;;;6.47;5.68;;;30.70;81.80;;;;;;5092419;28;20259;-54
2021/04/09 06:19:50;;;;;;;7.20;6.50;;;30.70;82.20;;;;;;5092621;28;20676;-54
2021/04/09 06:22:21;;;;;;;7.05;6.45;;;30.70;82.80;;;;;;5093255;28;20201;-53
2021/04/09 06:24:54;;;;;;;9.98;8.07;;;30.70;82.80;;;;;;5093433;28;20211;-54
2021/04/09 06:27:24;;;;;;;9.10;8.20;;;30.70;83.00;;;;;;5092800;28;20272;-51
2021/04/09 06:29:55;;;;;;;9.50;8.50;;;30.70;83.20;;;;;;5092271;28;20212;-53
2021/04/09 06:32:26;;;;;;;9.38;8.43;;;30.70;83.70;;;;;;5090604;28;20660;-54
2021/04/09 06:34:57;;;;;;;8.60;7.80;;;30.80;84.40;;;;;;5092849;28;20197;-53
2021/04/09 06:37:28;;;;;;;8.20;7.30;;;30.80;84.80;;;;;;5092962;28;20198;-52
2021/04/09 06:39:58;;;;;;;6.47;5.97;;;30.80;85.10;;;;;;5092191;28;20209;-52
2021/04/09 06:42:29;;;;;;;6.43;5.88;;;30.90;85.20;;;;;;5093293;28;20653;-54
2021/04/09 06:45:00;;;;;;;7.50;6.80;;;30.90;85.40;;;;;;5092813;28;20193;-54
2021/04/09 06:47:30;;;;;;;7.20;6.50;;;31.00;85.70;;;;;;5093694;28;20213;-53
2021/04/09 06:50:02;;;;;;;9.13;8.35;;;31.00;85.80;;;;;;5092912;28;20201;-53
2021/04/09 06:52:32;;;;;;;8.27;7.55;;;31.00;85.30;;;;;;5092577;28;20200;-50
2021/04/09 06:55:03;;;;;;;7.90;7.20;;;31.10;85.20;;;;;;5092666;28;20197;-48
2021/04/09 06:57:33;;;;;;;8.30;7.60;;;31.10;85.30;;;;;;5092469;28;20189;-48
2021/04/09 07:00:08;;;;;;;7.60;6.90;;;31.20;85.50;;;;;;5049922;28;20205;-52
2021/04/09 07:02:38;;;;;;;7.20;6.50;;;31.20;85.40;;;;;;5048972;28;20292;-50
2021/04/09 07:05:11;;;;;;;7.93;7.13;;;31.30;85.60;;;;;;5047095;28;20284;-49
2021/04/09 07:07:41;;;;;;;8.77;8.07;;;31.30;86.00;;;;;;5046347;28;20263;-51
2021/04/09 07:10:12;;;;;;;11.13;10.05;;;31.30;86.20;;;;;;5050239;28;20209;-54
2021/04/09 07:12:42;;;;;;;11.55;10.45;;;31.40;86.70;;;;;;5049675;28;20280;-52
2021/04/09 07:15:17;;;;;;;10.98;9.93;;;31.40;86.40;;;;;;5049058;28;20819;-53
2021/04/09 07:17:48;;;;;;;10.18;9.27;;;31.50;86.50;;;;;;5050219;28;20288;-55
2021/04/09 07:20:21;;;;;;;9.80;8.90;;;31.60;86.70;;;;;;5048964;28;20617;-50
2021/04/09 07:22:52;;;;;;;10.02;9.10;;;31.60;86.90;;;;;;5050108;28;20277;-49
2021/04/09 07:25:22;;;;;;;9.05;8.20;;;31.60;87.10;;;;;;5084925;28;20238;-52
2021/04/09 07:28:09;;;;;;;21.95;20.20;;;31.70;87.30;;;;;;5093090;28;20212;-50
2021/04/09 07:30:39;;;;;;;9.25;8.55;;;31.80;87.00;;;;;;5093051;28;20196;-53
2021/04/09 07:33:09;;;;;;;8.55;7.80;;;31.80;86.70;;;;;;5091740;28;20264;-52
2021/04/09 07:35:48;;;;;;;9.13;8.30;;;31.90;86.90;;;;;;5092806;28;20606;-49
2021/04/09 07:38:22;;;;;;;10.05;9.05;;;32.00;87.20;;;;;;5086449;28;20188;-52
2021/04/09 07:40:56;;;;;;;9.05;8.25;;;32.00;86.50;;;;;;5093272;28;20207;-51
2021/04/09 07:43:28;;;;;;;8.32;7.60;;;32.10;86.70;;;;;;5092678;28;20202;-49
2021/04/09 07:46:00;;;;;;;8.48;7.75;;;32.10;86.50;;;;;;5093029;28;20253;-50
2021/04/09 07:48:32;;;;;;;7.93;7.25;;;32.20;86.20;;;;;;5093592;28;20217;-49
2021/04/09 07:51:03;;;;;;;8.45;7.57;;;32.20;85.90;;;;;;5094299;28;20208;-51
2021/04/09 07:53:45;;;;;;;7.38;6.70;;;32.30;86.00;;;;;;5092912;28;20205;-55
2021/04/09 07:56:16;;;;;;;8.07;7.32;;;32.40;85.80;;;;;;5092651;28;20227;-54
2021/04/09 07:58:56;;;;;;;7.88;7.25;;;32.40;85.90;;;;;;5093421;28;20192;-49
2021/04/09 08:01:27;;;;;;;8.63;7.78;;;32.50;86.00;;;;;;5093934;28;20205;-51
2021/04/09 08:03:57;;;;;;;9.82;7.90;;;32.50;86.70;;;;;;5092920;28;20499;-51
2021/04/09 08:06:36;;;;;;;8.40;7.60;;;32.60;86.10;;;;;;5093188;28;20270;-55
2021/04/09 08:09:07;;;;;;;8.48;7.65;;;32.70;85.80;;;;;;5085485;28;20216;-55
2021/04/09 08:11:38;;;;;;;7.70;7.07;;;32.80;85.90;;;;;;5093471;28;20221;-55
2021/04/09 08:14:09;;;;;;;7.95;7.25;;;32.80;86.00;;;;;;5092545;28;20256;-54
2021/04/09 08:16:40;;;;;;;9.50;8.60;;;32.90;85.60;;;;;;5092508;28;20538;-54
2021/04/09 08:19:12;;;;;;;9.18;7.90;;;33.00;85.10;;;;;;5093278;28;20304;-55
2021/04/09 08:21:49;;;;;;;9.25;8.45;;;33.00;84.70;;;;;;5094283;28;20253;-55
2021/04/09 08:24:19;;;;;;;10.43;8.65;;;33.00;84.30;;;;;;5093079;28;20266;-55
2021/04/09 08:26:50;;;;;;;10.30;8.93;;;33.10;84.40;;;;;;5093408;28;20250;-53
2021/04/09 08:29:20;;;;;;;9.80;8.35;;;33.10;84.60;;;;;;5094152;28;20213;-49
2021/04/09 08:31:51;;;;;;;9.77;8.80;;;33.20;84.90;;;;;;5095839;28;20255;-52
2021/04/09 08:34:21;;;;;;;10.43;9.40;;;33.20;84.00;;;;;;5097785;28;20235;-51
2021/04/09 08:36:53;;;;;;;13.73;10.75;;;33.20;84.00;;;;;;5097054;28;20235;-52
2021/04/09 08:39:42;;;;;;;11.88;10.10;;;33.30;83.70;;;;;;5097980;28;21041;-51
2021/04/09 08:42:12;;;;;;;9.95;8.93;;;33.30;83.80;;;;;;5097714;28;20303;-53
2021/04/09 08:44:42;;;;;;;10.60;9.18;;;33.30;83.60;;;;;;5097515;28;20203;-51
2021/04/09 08:47:15;;;;;;;9.88;9.00;;;33.40;83.30;;;;;;5097310;28;20197;-49
2021/04/09 08:49:45;;;;;;;10.57;9.60;;;33.40;83.20;;;;;;5053655;28;20202;-50
2021/04/09 08:52:17;;;;;;;10.60;9.50;;;33.40;83.20;;;;;;5054215;28;20210;-51
2021/04/09 08:54:53;;;;;;;10.23;9.27;;;33.40;83.00;;;;;;5053923;28;20582;-51
2021/04/09 08:57:31;;;;;;;9.82;8.93;;;33.40;83.20;;;;;;5053885;28;20280;-53
2021/04/09 09:00:07;;;;;;;10.38;9.35;;;33.50;83.60;;;;;;5054485;28;20214;-50
2021/04/09 09:02:42;;;;;;;11.13;10.02;;;33.50;83.40;;;;;;5055297;28;20232;-48
2021/04/09 09:05:14;;;;;;;12.02;9.95;;;33.50;83.00;;;;;;5054133;28;20239;-52
2021/04/09 09:08:09;;;;;;;10.90;9.90;;;33.60;83.10;;;;;;5054339;28;20237;-50
2021/04/09 09:10:59;;;;;;;9.93;9.13;;;33.60;83.10;;;;;;5048025;28;20252;-51
2021/04/09 09:13:30;;;;;;;9.95;9.05;;;33.60;83.20;;;;;;5053608;28;20237;-54
2021/04/09 09:16:01;;;;;;;8.45;7.65;;;33.60;83.10;;;;;;5053596;28;20298;-56
2021/04/09 09:18:52;;;;;;;7.97;7.30;;;33.50;83.40;;;;;;5053441;28;20256;-56
2021/04/09 09:21:44;;;;;;;9.30;8.40;;;33.50;83.70;;;;;;5086522;28;20751;-51
2021/04/09 09:24:24;;;;;;;8.13;7.43;;;33.50;83.90;;;;;;5096274;28;20213;-54
2021/04/09 09:26:56;;;;;;;9.15;8.25;;;33.60;84.00;;;;;;5096934;28;20207;-56
2021/04/09 09:29:27;;;;;;;10.38;9.18;;;33.50;84.00;;;;;;5033821;28;20227;-55
2021/04/09 09:31:58;;;;;;;10.00;9.10;;;33.50;84.10;;;;;;5033239;28;20284;-54
2021/04/09 09:34:45;;;;;;;10.27;9.27;;;33.60;84.30;;;;;;5033330;28;20294;-54
2021/04/09 09:37:20;;;;;;;10.77;9.82;;;33.60;84.40;;;;;;5027636;28;20249;-55
2021/04/09 09:39:53;;;;;;;8.85;8.07;;;33.60;84.00;;;;;;5033553;28;20667;-53
2021/04/09 09:42:49;;;;;;;9.18;8.38;;;33.60;83.90;;;;;;5033342;28;20240;-55
2021/04/09 09:45:37;;;;;;;9.40;8.50;;;33.60;84.00;;;;;;5001207;28;20211;-56
2021/04/09 09:48:19;;;;;;;9.25;8.13;;;33.50;83.60;;;;;;5034605;28;20510;-51
2021/04/09 09:50:49;;;;;;;9.15;8.35;;;33.50;84.50;;;;;;5033346;28;20210;-51
2021/04/09 09:53:21;;;;;;;9.32;8.52;;;33.50;83.50;;;;;;5033441;28;20203;-54
2021/04/09 09:55:52;;;;;;;8.40;7.70;;;33.50;83.60;;;;;;5032905;28;20384;-53
2021/04/09 09:58:24;;;;;;;8.60;7.90;;;33.50;83.90;;;;;;5032645;28;20199;-56
2021/04/09 10:00:55;;;;;;;9.00;8.23;;;33.50;84.20;;;;;;5076040;28;20211;-56
2021/04/09 10:03:28;;;;;;;9.45;8.07;;;33.40;84.30;;;;;;5095521;28;20204;-55
2021/04/09 10:06:01;;;;;;;8.50;7.70;;;33.40;84.30;;;;;;5089240;28;20197;-56
2021/04/09 10:08:36;;;;;;;8.85;8.15;;;33.40;84.10;;;;;;5095949;28;20220;-55
2021/04/09 10:11:08;;;;;;;8.90;8.10;;;33.40;83.60;;;;;;5095820;28;20201;-54
2021/04/09 10:13:39;;;;;;;8.00;7.20;;;33.40;83.50;;;;;;5096332;28;20322;-55
2021/04/09 10:16:10;;;;;;;9.13;8.32;;;33.40;83.50;;;;;;5089097;28;20193;-55
2021/04/09 10:18:48;;;;;;;8.77;7.82;;;33.30;83.30;;;;;;5095822;28;20587;-55
2021/04/09 10:21:20;;;;;;;9.55;8.75;;;33.30;83.30;;;;;;5095698;28;20207;-55
2021/04/09 10:23:51;;;;;;;9.13;8.32;;;33.30;83.10;;;;;;5095287;28;20204;-54
2021/04/09 10:26:26;;;;;;;9.05;8.25;;;33.30;83.00;;;;;;5094734;28;20279;-54
2021/04/09 10:28:56;;;;;;;8.77;7.97;;;33.20;83.00;;;;;;5095302;28;20217;-55
2021/04/09 10:31:27;;;;;;;8.80;8.10;;;33.20;83.00;;;;;;5093480;28;20223;-51
2021/04/09 10:33:59;;;;;;;10.25;9.27;;;33.20;83.10;;;;;;5094702;28;20691;-51
2021/04/09 10:36:30;;;;;;;9.18;8.38;;;33.30;83.30;;;;;;5096834;28;20224;-51
2021/04/09 10:39:01;;;;;;;9.88;9.07;;;33.20;83.20;;;;;;5095486;28;20223;-54
2021/04/09 10:41:34;;;;;;;9.18;8.38;;;33.30;83.00;;;;;;5093679;28;20264;-54
2021/04/09 10:44:05;;;;;;;10.10;9.10;;;33.20;82.90;;;;;;5094299;28;20636;-55
2021/04/09 10:46:36;;;;;;;9.68;8.73;;;33.20;82.80;;;;;;5095312;28;20281;-52
2021/04/09 10:49:09;;;;;;;9.85;9.02;;;33.20;82.80;;;;;;5094198;28;20248;-54
2021/04/09 10:51:40;;;;;;;9.65;8.75;;;33.20;82.70;;;;;;5095015;28;20676;-50
2021/04/09 10:54:12;;;;;;;9.93;9.02;;;33.20;82.90;;;;;;5094204;28;20200;-51
2021/04/09 10:56:44;;;;;;;10.13;9.23;;;33.20;82.80;;;;;;5094284;28;20263;-53
2021/04/09 10:59:15;;;;;;;11.23;10.18;;;33.20;82.80;;;;;;5088133;28;20231;-55
2021/04/09 11:01:45;;;;;;;12.40;11.25;;;33.20;82.60;;;;;;5096603;28;20204;-54
2021/04/09 11:04:16;;;;;;;13.98;12.57;;;33.20;82.70;;;;;;5032618;28;20209;-54
2021/04/09 11:06:57;;;;;;;14.25;12.18;;;33.10;82.50;;;;;;5032457;28;20217;-53
2021/04/09 11:09:41;;;;;;;13.55;12.25;;;33.10;82.40;;;;;;5026147;28;20215;-56
2021/04/09 11:12:20;;;;;;;15.15;12.75;;;33.10;82.40;;;;;;5032484;28;20249;-55
2021/04/09 11:14:50;;;;;;;14.40;12.85;;;33.10;82.40;;;;;;5031027;28;20317;-53
2021/04/09 11:17:24;;;;;;;16.63;14.00;;;33.00;82.20;;;;;;5031723;28;20285;-54
2021/04/09 11:19:56;;;;;;;14.73;13.32;;;33.00;82.50;;;;;;5032212;28;20289;-55
2021/04/09 11:22:27;;;;;;;16.45;14.30;;;33.00;82.60;;;;;;5031099;28;20233;-55
2021/04/09 11:25:00;;;;;;;16.65;15.05;;;33.00;82.80;;;;;;5029406;28;20656;-54
2021/04/09 11:27:33;;;;;;;14.57;13.27;;;32.90;82.90;;;;;;5023272;28;20222;-53
2021/04/09 11:30:16;;;;;;;17.02;15.35;;;32.90;82.90;;;;;;5088486;28;20213;-51
2021/04/09 11:32:47;;;;;;;16.42;14.80;;;32.90;83.30;;;;;;5088326;28;20608;-52
2021/04/09 11:35:19;;;;;;;16.35;14.77;;;32.80;83.10;;;;;;5024515;28;20837;-51
2021/04/09 11:37:50;;;;;;;17.73;16.02;;;32.80;83.00;;;;;;5025373;28;20208;-51
2021/04/09 11:40:35;;;;;;;17.10;15.30;;;32.70;82.90;;;;;;5025357;28;20223;-55
2021/04/09 11:43:07;;;;;;;15.85;14.45;;;32.70;83.30;;;;;;5024356;28;20217;-54
2021/04/09 11:45:41;;;;;;;16.48;14.98;;;32.70;83.00;;;;;;5024676;28;20631;-53
2021/04/09 11:48:24;;;;;;;15.63;14.15;;;32.60;82.90;;;;;;5025567;28;20724;-51
2021/04/09 11:50:55;;;;;;;14.02;12.85;;;32.50;82.70;;;;;;5025362;28;20264;-52
2021/04/09 11:53:26;;;;;;;15.32;13.80;;;32.50;82.60;;;;;;5025225;28;20206;-55
2021/04/09 11:55:56;;;;;;;14.77;13.48;;;32.40;82.80;;;;;;5024657;28;20215;-49
2021/04/09 11:58:30;;;;;;;15.10;13.80;;;32.40;83.00;;;;;;5025464;28;20350;-51
2021/04/09 12:01:01;;;;;;;15.45;14.02;;;32.40;83.30;;;;;;5086996;28;20621;-50
2021/04/09 12:03:49;;;;;;;14.48;13.27;;;32.30;83.30;;;;;;5088219;28;20207;-53
2021/04/09 12:06:19;;;;;;;15.75;14.32;;;32.30;83.80;;;;;;5089303;28;20204;-54
2021/04/09 12:08:50;;;;;;;15.70;14.25;;;32.20;83.50;;;;;;5084330;28;20240;-55
2021/04/09 12:11:24;;;;;;;14.48;13.18;;;32.20;83.70;;;;;;5091937;28;20246;-53
2021/04/09 12:13:56;;;;;;;13.88;12.75;;;32.20;83.90;;;;;;5091786;28;20264;-51
2021/04/09 12:16:26;;;;;;;14.55;13.25;;;32.20;84.00;;;;;;5091738;28;20213;-53
2021/04/09 12:18:57;;;;;;;13.88;12.70;;;32.10;84.10;;;;;;5091829;28;20220;-54
2021/04/09 12:21:27;;;;;;;16.05;14.55;;;32.10;84.20;;;;;;5091913;28;20201;-54
2021/04/09 12:23:57;;;;;;;15.82;14.48;;;32.10;84.40;;;;;;5091837;28;20200;-55
2021/04/09 12:26:28;;;;;;;15.98;14.48;;;32.00;84.40;;;;;;5091601;28;20231;-53
2021/04/09 12:28:59;;;;;;;16.30;14.90;;;32.00;84.60;;;;;;5089300;28;20232;-51
2021/04/09 12:31:29;;;;;;;14.82;13.55;;;32.00;84.70;;;;;;5092047;28;20205;-53
2021/04/09 12:34:00;;;;;;;16.92;15.32;;;32.00;84.70;;;;;;5091821;28;20660;-54
2021/04/09 12:36:30;;;;;;;15.43;14.18;;;32.00;84.80;;;;;;5090073;28;20292;-52
2021/04/09 12:39:00;;;;;;;16.00;14.73;;;31.90;84.80;;;;;;5091176;28;20196;-55
2021/04/09 12:41:30;;;;;;;15.88;14.48;;;31.90;84.70;;;;;;5091641;28;20287;-54
2021/04/09 12:44:02;;;;;;;15.13;13.73;;;31.90;84.70;;;;;;5091427;28;20193;-53
2021/04/09 12:46:32;;;;;;;15.45;14.05;;;31.90;84.80;;;;;;5091542;28;20196;-51
2021/04/09 12:49:03;;;;;;;17.15;15.75;;;31.90;84.90;;;;;;5090590;28;20249;-51
2021/04/09 12:51:33;;;;;;;17.20;15.82;;;31.90;84.80;;;;;;5091543;28;20200;-54
2021/04/09 12:54:04;;;;;;;15.60;14.25;;;31.90;84.80;;;;;;5091239;28;20282;-56
2021/04/09 12:56:34;;;;;;;16.50;15.15;;;31.90;84.90;;;;;;5091058;28;20196;-51
2021/04/09 12:59:06;;;;;;;17.33;15.60;;;31.90;85.10;;;;;;5089464;28;20193;-52
2021/04/09 13:01:36;;;;;;;16.35;14.95;;;31.80;84.90;;;;;;5090937;28;20209;-52
2021/04/09 13:04:07;;;;;;;17.25;15.73;;;31.80;85.00;;;;;;5091062;28;20293;-50
2021/04/09 13:06:37;;;;;;;18.27;16.55;;;31.80;85.10;;;;;;5091552;28;20204;-52